sensor_id;sensor_type;location;lat;lon;timestamp;P1;durP1;ratioP1;P2;durP2;ratioP2
64633;SDS011;51043;52.406;9.690;2022-08-01T00:02:19;11.70;;;6.25;;
64633;SDS011;51043;52.406;9.690;2022-08-01T00:04:46;9.75;;;6.57;;
64633;SDS011;51043;52.406;9.690;2022-08-01T00:07:12;11.43;;;6.95;;
64633;SDS011;51043;52.406;9.690;2022-08-01T00:09:39;10.05;;;7.10;;
64633;SDS011;51043;52.406;9.690;2022-08-01T00:12:06;11.98;;;6.85;;
64633;SDS011;51043;52.406;9.690;2022-08-01T00:14:33;10.30;;;7.15;;
64633;SDS011;51043;52.406;9.690;2022-08-01T00:17:00;10.70;;;6.70;;
64633;SDS011;51043;52.406;9.690;2022-08-01T00:19:30;9.48;;;6.63;;
64633;SDS011;51043;52.406;9.690;2022-08-01T00:21:57;10.73;;;7.18;;
64633;SDS011;51043;52.406;9.690;2022-08-01T00:24:27;10.38;;;6.93;;
64633;SDS011;51043;52.406;9.690;2022-08-01T00:26:54;13.18;;;7.18;;
64633;SDS011;51043;52.406;9.690;2022-08-01T00:29:22;10.73;;;8.00;;
64633;SDS011;51043;52.406;9.690;2022-08-01T00:31:48;11.65;;;7.13;;
64633;SDS011;51043;52.406;9.690;2022-08-01T00:34:15;12.13;;;7.70;;
64633;SDS011;51043;52.406;9.690;2022-08-01T00:36:42;15.23;;;8.45;;
64633;SDS011;51043;52.406;9.690;2022-08-01T00:39:09;11.73;;;8.43;;
64633;SDS011;51043;52.406;9.690;2022-08-01T00:41:36;13.65;;;7.78;;
64633;SDS011;51043;52.406;9.690;2022-08-01T00:44:06;10.60;;;8.05;;
64633;SDS011;51043;52.406;9.690;2022-08-01T00:46:33;15.32;;;9.23;;
64633;SDS011;51043;52.406;9.690;2022-08-01T00:49:01;16.35;;;8.45;;
64633;SDS011;51043;52.406;9.690;2022-08-01T00:51:28;14.30;;;8.52;;
64633;SDS011;51043;52.406;9.690;2022-08-01T00:53:56;16.23;;;8.65;;
64633;SDS011;51043;52.406;9.690;2022-08-01T00:56:26;14.43;;;8.00;;
64633;SDS011;51043;52.406;9.690;2022-08-01T00:58:54;13.80;;;7.90;;
64633;SDS011;51043;52.406;9.690;2022-08-01T01:01:22;14.32;;;8.30;;
64633;SDS011;51043;52.406;9.690;2022-08-01T01:03:50;20.05;;;8.05;;
64633;SDS011;51043;52.406;9.690;2022-08-01T01:09:18;13.20;;;7.95;;
64633;SDS011;51043;52.406;9.690;2022-08-01T01:12:02;16.70;;;8.15;;
64633;SDS011;51043;52.406;9.690;2022-08-01T01:14:33;12.40;;;7.70;;
64633;SDS011;51043;52.406;9.690;2022-08-01T01:17:10;15.52;;;7.63;;
64633;SDS011;51043;52.406;9.690;2022-08-01T01:19:49;13.57;;;7.25;;
64633;SDS011;51043;52.406;9.690;2022-08-01T01:22:36;16.20;;;7.53;;
64633;SDS011;51043;52.406;9.690;2022-08-01T01:25:14;15.23;;;7.88;;
64633;SDS011;51043;52.406;9.690;2022-08-01T01:31:00;12.48;;;7.15;;
64633;SDS011;51043;52.406;9.690;2022-08-01T01:33:32;10.13;;;6.90;;
64633;SDS011;51043;52.406;9.690;2022-08-01T01:36:01;11.75;;;6.53;;
64633;SDS011;51043;52.406;9.690;2022-08-01T01:38:33;12.90;;;7.25;;
64633;SDS011;51043;52.406;9.690;2022-08-01T01:41:02;13.45;;;7.15;;
64633;SDS011;51043;52.406;9.690;2022-08-01T01:43:31;13.07;;;6.65;;
64633;SDS011;51043;52.406;9.690;2022-08-01T01:45:59;9.25;;;6.28;;
64633;SDS011;51043;52.406;9.690;2022-08-01T01:48:30;9.43;;;5.10;;
64633;SDS011;51043;52.406;9.690;2022-08-01T01:51:00;7.60;;;5.43;;
64633;SDS011;51043;52.406;9.690;2022-08-01T01:53:29;18.25;;;5.80;;
64633;SDS011;51043;52.406;9.690;2022-08-01T01:55:59;7.28;;;5.28;;
64633;SDS011;51043;52.406;9.690;2022-08-01T01:58:31;12.20;;;6.30;;
64633;SDS011;51043;52.406;9.690;2022-08-01T02:01:01;11.32;;;6.00;;
64633;SDS011;51043;52.406;9.690;2022-08-01T02:03:29;8.15;;;6.05;;
64633;SDS011;51043;52.406;9.690;2022-08-01T02:05:58;9.82;;;5.53;;
64633;SDS011;51043;52.406;9.690;2022-08-01T02:08:28;9.48;;;4.80;;
64633;SDS011;51043;52.406;9.690;2022-08-01T02:10:58;7.03;;;5.05;;
64633;SDS011;51043;52.406;9.690;2022-08-01T02:13:45;6.53;;;4.72;;
64633;SDS011;51043;52.406;9.690;2022-08-01T02:16:15;5.90;;;5.13;;
64633;SDS011;51043;52.406;9.690;2022-08-01T02:18:43;7.95;;;5.20;;
64633;SDS011;51043;52.406;9.690;2022-08-01T02:21:12;6.82;;;5.35;;
64633;SDS011;51043;52.406;9.690;2022-08-01T02:23:43;9.23;;;5.90;;
64633;SDS011;51043;52.406;9.690;2022-08-01T02:26:13;10.88;;;6.07;;
64633;SDS011;51043;52.406;9.690;2022-08-01T02:28:56;7.70;;;6.43;;
64633;SDS011;51043;52.406;9.690;2022-08-01T02:31:27;6.85;;;6.20;;
64633;SDS011;51043;52.406;9.690;2022-08-01T02:34:02;8.65;;;5.68;;
64633;SDS011;51043;52.406;9.690;2022-08-01T02:36:33;9.77;;;6.63;;
64633;SDS011;51043;52.406;9.690;2022-08-01T02:39:03;7.25;;;5.78;;
64633;SDS011;51043;52.406;9.690;2022-08-01T02:41:42;8.63;;;5.95;;
64633;SDS011;51043;52.406;9.690;2022-08-01T02:44:14;10.68;;;6.35;;
64633;SDS011;51043;52.406;9.690;2022-08-01T02:47:03;11.82;;;6.85;;
64633;SDS011;51043;52.406;9.690;2022-08-01T02:49:31;7.25;;;6.15;;
64633;SDS011;51043;52.406;9.690;2022-08-01T02:52:10;8.43;;;6.18;;
64633;SDS011;51043;52.406;9.690;2022-08-01T02:54:40;9.20;;;6.28;;
64633;SDS011;51043;52.406;9.690;2022-08-01T02:57:10;7.85;;;5.68;;
64633;SDS011;51043;52.406;9.690;2022-08-01T02:59:39;5.70;;;4.88;;
64633;SDS011;51043;52.406;9.690;2022-08-01T03:02:07;6.22;;;3.70;;
64633;SDS011;51043;52.406;9.690;2022-08-01T03:04:36;6.15;;;3.90;;
64633;SDS011;51043;52.406;9.690;2022-08-01T03:07:06;4.30;;;3.60;;
64633;SDS011;51043;52.406;9.690;2022-08-01T03:09:36;3.65;;;3.10;;
64633;SDS011;51043;52.406;9.690;2022-08-01T03:12:07;8.05;;;3.55;;
64633;SDS011;51043;52.406;9.690;2022-08-01T03:14:38;6.10;;;3.03;;
64633;SDS011;51043;52.406;9.690;2022-08-01T03:17:08;5.53;;;3.10;;
64633;SDS011;51043;52.406;9.690;2022-08-01T03:19:36;3.58;;;3.20;;
64633;SDS011;51043;52.406;9.690;2022-08-01T03:22:08;4.30;;;3.42;;
64633;SDS011;51043;52.406;9.690;2022-08-01T03:24:37;4.15;;;3.53;;
64633;SDS011;51043;52.406;9.690;2022-08-01T03:27:06;3.95;;;3.15;;
64633;SDS011;51043;52.406;9.690;2022-08-01T03:29:34;4.07;;;3.50;;
64633;SDS011;51043;52.406;9.690;2022-08-01T03:32:03;5.30;;;3.58;;
64633;SDS011;51043;52.406;9.690;2022-08-01T03:34:31;4.10;;;3.35;;
64633;SDS011;51043;52.406;9.690;2022-08-01T03:37:01;4.97;;;3.00;;
64633;SDS011;51043;52.406;9.690;2022-08-01T03:39:47;6.43;;;3.00;;
64633;SDS011;51043;52.406;9.690;2022-08-01T03:42:19;3.15;;;2.38;;
64633;SDS011;51043;52.406;9.690;2022-08-01T03:44:53;3.63;;;1.75;;
64633;SDS011;51043;52.406;9.690;2022-08-01T03:47:24;1.90;;;1.70;;
64633;SDS011;51043;52.406;9.690;2022-08-01T03:49:55;3.10;;;1.65;;
64633;SDS011;51043;52.406;9.690;2022-08-01T03:52:25;2.70;;;1.60;;
64633;SDS011;51043;52.406;9.690;2022-08-01T03:54:55;3.20;;;1.83;;
64633;SDS011;51043;52.406;9.690;2022-08-01T03:57:24;2.55;;;2.03;;
64633;SDS011;51043;52.406;9.690;2022-08-01T03:59:55;2.17;;;1.98;;
64633;SDS011;51043;52.406;9.690;2022-08-01T04:02:26;2.88;;;2.15;;
64633;SDS011;51043;52.406;9.690;2022-08-01T04:04:54;3.20;;;2.40;;
64633;SDS011;51043;52.406;9.690;2022-08-01T04:07:25;4.72;;;2.92;;
64633;SDS011;51043;52.406;9.690;2022-08-01T04:09:54;4.25;;;3.08;;
64633;SDS011;51043;52.406;9.690;2022-08-01T04:12:20;6.13;;;3.00;;
64633;SDS011;51043;52.406;9.690;2022-08-01T04:14:48;8.52;;;3.03;;
64633;SDS011;51043;52.406;9.690;2022-08-01T04:17:15;6.15;;;3.60;;
64633;SDS011;51043;52.406;9.690;2022-08-01T04:19:43;10.07;;;4.45;;
64633;SDS011;51043;52.406;9.690;2022-08-01T04:22:13;6.13;;;5.47;;
64633;SDS011;51043;52.406;9.690;2022-08-01T04:24:49;9.38;;;5.97;;
64633;SDS011;51043;52.406;9.690;2022-08-01T04:27:23;7.40;;;6.50;;
64633;SDS011;51043;52.406;9.690;2022-08-01T04:29:56;16.45;;;8.13;;
64633;SDS011;51043;52.406;9.690;2022-08-01T04:32:26;10.93;;;8.60;;
64633;SDS011;51043;52.406;9.690;2022-08-01T04:34:57;12.43;;;8.52;;
64633;SDS011;51043;52.406;9.690;2022-08-01T04:37:26;11.60;;;8.52;;
64633;SDS011;51043;52.406;9.690;2022-08-01T04:39:54;11.75;;;8.35;;
64633;SDS011;51043;52.406;9.690;2022-08-01T04:42:23;10.13;;;8.65;;
64633;SDS011;51043;52.406;9.690;2022-08-01T04:44:50;9.52;;;8.52;;
64633;SDS011;51043;52.406;9.690;2022-08-01T04:47:17;10.85;;;8.65;;
64633;SDS011;51043;52.406;9.690;2022-08-01T04:49:46;10.85;;;7.72;;
64633;SDS011;51043;52.406;9.690;2022-08-01T04:52:13;12.27;;;7.88;;
64633;SDS011;51043;52.406;9.690;2022-08-01T04:54:42;10.90;;;7.88;;
64633;SDS011;51043;52.406;9.690;2022-08-01T04:57:09;9.60;;;6.22;;
64633;SDS011;51043;52.406;9.690;2022-08-01T04:59:37;7.97;;;5.68;;
64633;SDS011;51043;52.406;9.690;2022-08-01T05:02:08;10.25;;;5.43;;
64633;SDS011;51043;52.406;9.690;2022-08-01T05:04:37;6.85;;;4.43;;
64633;SDS011;51043;52.406;9.690;2022-08-01T05:07:06;5.72;;;4.47;;
64633;SDS011;51043;52.406;9.690;2022-08-01T05:09:33;5.82;;;4.63;;
64633;SDS011;51043;52.406;9.690;2022-08-01T05:12:02;7.70;;;4.40;;
64633;SDS011;51043;52.406;9.690;2022-08-01T05:14:34;8.18;;;4.15;;
64633;SDS011;51043;52.406;9.690;2022-08-01T05:17:02;7.70;;;4.15;;
64633;SDS011;51043;52.406;9.690;2022-08-01T05:19:34;6.63;;;4.13;;
64633;SDS011;51043;52.406;9.690;2022-08-01T05:22:05;7.43;;;3.97;;
64633;SDS011;51043;52.406;9.690;2022-08-01T05:24:42;7.25;;;4.30;;
64633;SDS011;51043;52.406;9.690;2022-08-01T05:27:09;5.13;;;4.00;;
64633;SDS011;51043;52.406;9.690;2022-08-01T05:29:36;6.15;;;4.20;;
64633;SDS011;51043;52.406;9.690;2022-08-01T05:32:05;4.55;;;4.00;;
64633;SDS011;51043;52.406;9.690;2022-08-01T05:34:33;5.85;;;4.45;;
64633;SDS011;51043;52.406;9.690;2022-08-01T05:36:59;6.15;;;4.47;;
64633;SDS011;51043;52.406;9.690;2022-08-01T05:39:27;6.95;;;4.00;;
64633;SDS011;51043;52.406;9.690;2022-08-01T05:41:54;8.48;;;4.35;;
64633;SDS011;51043;52.406;9.690;2022-08-01T05:44:21;5.38;;;4.20;;
64633;SDS011;51043;52.406;9.690;2022-08-01T05:46:48;4.72;;;3.38;;
64633;SDS011;51043;52.406;9.690;2022-08-01T05:49:15;4.72;;;4.03;;
64633;SDS011;51043;52.406;9.690;2022-08-01T05:51:43;4.43;;;3.78;;
64633;SDS011;51043;52.406;9.690;2022-08-01T05:54:10;4.65;;;3.60;;
64633;SDS011;51043;52.406;9.690;2022-08-01T05:56:37;4.88;;;3.42;;
64633;SDS011;51043;52.406;9.690;2022-08-01T05:59:08;4.80;;;3.88;;
64633;SDS011;51043;52.406;9.690;2022-08-01T06:01:35;4.57;;;3.75;;
64633;SDS011;51043;52.406;9.690;2022-08-01T06:04:02;7.10;;;3.50;;
64633;SDS011;51043;52.406;9.690;2022-08-01T06:06:30;5.15;;;3.78;;
64633;SDS011;51043;52.406;9.690;2022-08-01T06:08:57;6.97;;;4.10;;
64633;SDS011;51043;52.406;9.690;2022-08-01T06:11:24;5.93;;;4.03;;
64633;SDS011;51043;52.406;9.690;2022-08-01T06:13:51;4.45;;;3.33;;
64633;SDS011;51043;52.406;9.690;2022-08-01T06:16:19;6.45;;;3.33;;
64633;SDS011;51043;52.406;9.690;2022-08-01T06:18:47;4.43;;;3.50;;
64633;SDS011;51043;52.406;9.690;2022-08-01T06:21:14;3.67;;;3.00;;
64633;SDS011;51043;52.406;9.690;2022-08-01T06:23:41;3.70;;;3.40;;
64633;SDS011;51043;52.406;9.690;2022-08-01T06:26:09;5.18;;;3.38;;
64633;SDS011;51043;52.406;9.690;2022-08-01T06:28:41;4.32;;;3.50;;
64633;SDS011;51043;52.406;9.690;2022-08-01T06:31:15;4.20;;;3.30;;
64633;SDS011;51043;52.406;9.690;2022-08-01T06:33:42;4.68;;;3.55;;
64633;SDS011;51043;52.406;9.690;2022-08-01T06:36:10;4.07;;;3.03;;
64633;SDS011;51043;52.406;9.690;2022-08-01T06:38:37;3.28;;;2.95;;
64633;SDS011;51043;52.406;9.690;2022-08-01T06:41:04;3.20;;;2.90;;
64633;SDS011;51043;52.406;9.690;2022-08-01T06:43:33;4.82;;;2.30;;
64633;SDS011;51043;52.406;9.690;2022-08-01T06:46:00;2.55;;;2.35;;
64633;SDS011;51043;52.406;9.690;2022-08-01T06:48:26;3.45;;;2.60;;
64633;SDS011;51043;52.406;9.690;2022-08-01T06:50:53;3.92;;;2.60;;
64633;SDS011;51043;52.406;9.690;2022-08-01T06:53:37;3.28;;;2.67;;
64633;SDS011;51043;52.406;9.690;2022-08-01T06:56:05;11.10;;;3.40;;
64633;SDS011;51043;52.406;9.690;2022-08-01T06:58:34;7.50;;;2.47;;
64633;SDS011;51043;52.406;9.690;2022-08-01T07:01:02;6.85;;;2.33;;
64633;SDS011;51043;52.406;9.690;2022-08-01T07:03:36;2.65;;;2.45;;
64633;SDS011;51043;52.406;9.690;2022-08-01T07:06:03;3.70;;;2.38;;
64633;SDS011;51043;52.406;9.690;2022-08-01T07:08:33;7.72;;;2.17;;
64633;SDS011;51043;52.406;9.690;2022-08-01T07:11:00;2.92;;;1.98;;
64633;SDS011;51043;52.406;9.690;2022-08-01T07:13:28;2.92;;;1.85;;
64633;SDS011;51043;52.406;9.690;2022-08-01T07:15:57;3.72;;;1.73;;
64633;SDS011;51043;52.406;9.690;2022-08-01T07:18:24;8.60;;;2.25;;
64633;SDS011;51043;52.406;9.690;2022-08-01T07:20:51;5.95;;;1.90;;
64633;SDS011;51043;52.406;9.690;2022-08-01T07:23:18;3.05;;;1.60;;
64633;SDS011;51043;52.406;9.690;2022-08-01T07:25:45;2.05;;;1.60;;
64633;SDS011;51043;52.406;9.690;2022-08-01T07:28:15;1.85;;;1.67;;
64633;SDS011;51043;52.406;9.690;2022-08-01T07:30:41;1.77;;;1.50;;
64633;SDS011;51043;52.406;9.690;2022-08-01T07:33:10;1.98;;;1.50;;
64633;SDS011;51043;52.406;9.690;2022-08-01T07:35:37;1.83;;;1.50;;
64633;SDS011;51043;52.406;9.690;2022-08-01T07:38:06;4.25;;;1.52;;
64633;SDS011;51043;52.406;9.690;2022-08-01T07:40:37;1.30;;;1.20;;
64633;SDS011;51043;52.406;9.690;2022-08-01T07:43:04;4.10;;;1.50;;
64633;SDS011;51043;52.406;9.690;2022-08-01T07:45:34;2.78;;;1.33;;
64633;SDS011;51043;52.406;9.690;2022-08-01T07:48:08;2.15;;;1.40;;
64633;SDS011;51043;52.406;9.690;2022-08-01T07:50:35;3.00;;;1.70;;
64633;SDS011;51043;52.406;9.690;2022-08-01T07:53:02;2.33;;;1.67;;
64633;SDS011;51043;52.406;9.690;2022-08-01T07:55:30;2.53;;;2.03;;
64633;SDS011;51043;52.406;9.690;2022-08-01T07:57:57;3.92;;;2.17;;
64633;SDS011;51043;52.406;9.690;2022-08-01T08:00:24;3.58;;;2.72;;
64633;SDS011;51043;52.406;9.690;2022-08-01T08:02:51;5.75;;;3.47;;
64633;SDS011;51043;52.406;9.690;2022-08-01T08:05:18;3.88;;;3.38;;
64633;SDS011;51043;52.406;9.690;2022-08-01T08:07:46;4.45;;;3.20;;
64633;SDS011;51043;52.406;9.690;2022-08-01T08:10:13;5.13;;;3.10;;
64633;SDS011;51043;52.406;9.690;2022-08-01T08:12:42;3.90;;;3.33;;
64633;SDS011;51043;52.406;9.690;2022-08-01T08:15:10;8.50;;;3.08;;
64633;SDS011;51043;52.406;9.690;2022-08-01T08:17:37;5.70;;;2.88;;
64633;SDS011;51043;52.406;9.690;2022-08-01T08:20:13;3.50;;;2.70;;
64633;SDS011;51043;52.406;9.690;2022-08-01T08:22:40;5.97;;;2.75;;
64633;SDS011;51043;52.406;9.690;2022-08-01T08:25:12;7.70;;;2.75;;
64633;SDS011;51043;52.406;9.690;2022-08-01T08:27:39;2.70;;;2.40;;
64633;SDS011;51043;52.406;9.690;2022-08-01T08:30:12;3.08;;;2.08;;
64633;SDS011;51043;52.406;9.690;2022-08-01T08:32:39;3.10;;;2.15;;
64633;SDS011;51043;52.406;9.690;2022-08-01T08:35:07;3.17;;;1.83;;
64633;SDS011;51043;52.406;9.690;2022-08-01T08:37:41;2.03;;;1.88;;
64633;SDS011;51043;52.406;9.690;2022-08-01T08:40:11;7.78;;;1.80;;
64633;SDS011;51043;52.406;9.690;2022-08-01T08:42:39;5.95;;;1.52;;
64633;SDS011;51043;52.406;9.690;2022-08-01T08:45:07;3.08;;;1.50;;
64633;SDS011;51043;52.406;9.690;2022-08-01T08:47:37;2.17;;;1.40;;
64633;SDS011;51043;52.406;9.690;2022-08-01T08:50:05;4.38;;;1.70;;
64633;SDS011;51043;52.406;9.690;2022-08-01T08:52:43;3.13;;;1.63;;
64633;SDS011;51043;52.406;9.690;2022-08-01T08:55:12;2.58;;;1.60;;
64633;SDS011;51043;52.406;9.690;2022-08-01T08:57:40;1.92;;;1.70;;
64633;SDS011;51043;52.406;9.690;2022-08-01T09:00:10;3.05;;;1.85;;
64633;SDS011;51043;52.406;9.690;2022-08-01T09:02:43;4.63;;;1.83;;
64633;SDS011;51043;52.406;9.690;2022-08-01T09:05:11;3.50;;;1.80;;
64633;SDS011;51043;52.406;9.690;2022-08-01T09:07:41;2.30;;;1.55;;
64633;SDS011;51043;52.406;9.690;2022-08-01T09:10:08;3.38;;;2.30;;
64633;SDS011;51043;52.406;9.690;2022-08-01T09:12:38;7.53;;;2.65;;
64633;SDS011;51043;52.406;9.690;2022-08-01T09:15:05;5.82;;;2.15;;
64633;SDS011;51043;52.406;9.690;2022-08-01T09:17:39;4.97;;;2.40;;
64633;SDS011;51043;52.406;9.690;2022-08-01T09:23:03;6.82;;;3.20;;
64633;SDS011;51043;52.406;9.690;2022-08-01T09:25:38;3.83;;;2.80;;
64633;SDS011;51043;52.406;9.690;2022-08-01T09:28:26;4.75;;;2.90;;
64633;SDS011;51043;52.406;9.690;2022-08-01T09:30:55;4.47;;;3.60;;
64633;SDS011;51043;52.406;9.690;2022-08-01T09:33:25;3.95;;;3.40;;
64633;SDS011;51043;52.406;9.690;2022-08-01T09:36:54;7.28;;;4.70;;
64633;SDS011;51043;52.406;9.690;2022-08-01T09:39:21;5.50;;;3.28;;
64633;SDS011;51043;52.406;9.690;2022-08-01T09:41:55;8.50;;;3.30;;
64633;SDS011;51043;52.406;9.690;2022-08-01T09:44:37;5.90;;;3.03;;
64633;SDS011;51043;52.406;9.690;2022-08-01T09:47:11;8.77;;;2.97;;
64633;SDS011;51043;52.406;9.690;2022-08-01T09:49:42;5.35;;;2.90;;
64633;SDS011;51043;52.406;9.690;2022-08-01T09:52:13;3.50;;;2.63;;
64633;SDS011;51043;52.406;9.690;2022-08-01T09:54:43;6.15;;;2.60;;
64633;SDS011;51043;52.406;9.690;2022-08-01T09:57:29;6.90;;;2.70;;
64633;SDS011;51043;52.406;9.690;2022-08-01T09:59:57;5.40;;;2.70;;
64633;SDS011;51043;52.406;9.690;2022-08-01T10:02:39;4.18;;;2.80;;
64633;SDS011;51043;52.406;9.690;2022-08-01T10:05:10;6.13;;;2.92;;
64633;SDS011;51043;52.406;9.690;2022-08-01T10:07:59;6.65;;;2.70;;
64633;SDS011;51043;52.406;9.690;2022-08-01T10:10:31;7.28;;;2.90;;
64633;SDS011;51043;52.406;9.690;2022-08-01T10:12:59;6.55;;;2.78;;
64633;SDS011;51043;52.406;9.690;2022-08-01T10:15:26;4.55;;;2.88;;
64633;SDS011;51043;52.406;9.690;2022-08-01T10:17:58;4.30;;;2.85;;
64633;SDS011;51043;52.406;9.690;2022-08-01T10:20:28;5.30;;;2.42;;
64633;SDS011;51043;52.406;9.690;2022-08-01T10:23:03;6.20;;;2.97;;
64633;SDS011;51043;52.406;9.690;2022-08-01T10:25:35;7.43;;;2.25;;
64633;SDS011;51043;52.406;9.690;2022-08-01T10:28:18;5.32;;;2.35;;
64633;SDS011;51043;52.406;9.690;2022-08-01T10:30:47;9.75;;;3.03;;
64633;SDS011;51043;52.406;9.690;2022-08-01T10:33:17;4.88;;;1.95;;
64633;SDS011;51043;52.406;9.690;2022-08-01T10:35:57;6.13;;;2.30;;
64633;SDS011;51043;52.406;9.690;2022-08-01T10:38:24;7.10;;;2.20;;
64633;SDS011;51043;52.406;9.690;2022-08-01T10:40:56;6.95;;;2.17;;
64633;SDS011;51043;52.406;9.690;2022-08-01T10:43:28;10.07;;;2.38;;
64633;SDS011;51043;52.406;9.690;2022-08-01T10:45:55;6.20;;;2.20;;
64633;SDS011;51043;52.406;9.690;2022-08-01T10:48:44;4.93;;;2.40;;
64633;SDS011;51043;52.406;9.690;2022-08-01T10:51:24;7.05;;;2.53;;
64633;SDS011;51043;52.406;9.690;2022-08-01T10:53:52;11.73;;;3.25;;
64633;SDS011;51043;52.406;9.690;2022-08-01T10:56:37;9.18;;;2.63;;
64633;SDS011;51043;52.406;9.690;2022-08-01T10:59:10;9.18;;;2.63;;
64633;SDS011;51043;52.406;9.690;2022-08-01T11:01:58;13.70;;;2.50;;
64633;SDS011;51043;52.406;9.690;2022-08-01T11:07:16;8.30;;;2.40;;
64633;SDS011;51043;52.406;9.690;2022-08-01T11:10:05;6.82;;;2.15;;
64633;SDS011;51043;52.406;9.690;2022-08-01T11:12:43;5.57;;;1.90;;
64633;SDS011;51043;52.406;9.690;2022-08-01T11:17:53;5.75;;;1.95;;
64633;SDS011;51043;52.406;9.690;2022-08-01T11:30:54;9.52;;;2.30;;
64633;SDS011;51043;52.406;9.690;2022-08-01T11:36:16;7.20;;;2.38;;
64633;SDS011;51043;52.406;9.690;2022-08-01T11:41:24;8.23;;;2.42;;
64633;SDS011;51043;52.406;9.690;2022-08-01T11:43:56;5.82;;;2.25;;
64633;SDS011;51043;52.406;9.690;2022-08-01T11:49:30;14.27;;;2.80;;
64633;SDS011;51043;52.406;9.690;2022-08-01T11:54:47;7.70;;;2.60;;
64633;SDS011;51043;52.406;9.690;2022-08-01T11:59:57;6.55;;;2.42;;
64633;SDS011;51043;52.406;9.690;2022-08-01T12:02:26;6.25;;;2.35;;
64633;SDS011;51043;52.406;9.690;2022-08-01T12:05:01;10.63;;;2.65;;
64633;SDS011;51043;52.406;9.690;2022-08-01T12:07:32;8.73;;;2.78;;
64633;SDS011;51043;52.406;9.690;2022-08-01T12:10:10;8.93;;;2.72;;
64633;SDS011;51043;52.406;9.690;2022-08-01T12:12:48;6.97;;;2.60;;
64633;SDS011;51043;52.406;9.690;2022-08-01T12:15:16;7.07;;;2.67;;
64633;SDS011;51043;52.406;9.690;2022-08-01T12:17:45;6.10;;;2.20;;
64633;SDS011;51043;52.406;9.690;2022-08-01T12:20:20;7.82;;;2.53;;
64633;SDS011;51043;52.406;9.690;2022-08-01T12:22:52;11.18;;;3.13;;
64633;SDS011;51043;52.406;9.690;2022-08-01T12:25:20;11.65;;;2.83;;
64633;SDS011;51043;52.406;9.690;2022-08-01T12:27:48;10.68;;;2.88;;
64633;SDS011;51043;52.406;9.690;2022-08-01T12:30:18;7.05;;;2.42;;
64633;SDS011;51043;52.406;9.690;2022-08-01T12:32:49;8.75;;;2.90;;
64633;SDS011;51043;52.406;9.690;2022-08-01T12:35:17;9.32;;;2.65;;
64633;SDS011;51043;52.406;9.690;2022-08-01T12:37:48;11.65;;;2.70;;
64633;SDS011;51043;52.406;9.690;2022-08-01T12:40:22;11.70;;;2.90;;
64633;SDS011;51043;52.406;9.690;2022-08-01T12:43:04;9.48;;;2.60;;
64633;SDS011;51043;52.406;9.690;2022-08-01T12:45:34;12.35;;;2.78;;
64633;SDS011;51043;52.406;9.690;2022-08-01T12:48:07;8.27;;;2.58;;
64633;SDS011;51043;52.406;9.690;2022-08-01T12:50:44;9.57;;;2.63;;
64633;SDS011;51043;52.406;9.690;2022-08-01T12:53:13;6.72;;;2.30;;
64633;SDS011;51043;52.406;9.690;2022-08-01T12:55:47;9.27;;;2.25;;
64633;SDS011;51043;52.406;9.690;2022-08-01T12:58:19;12.30;;;2.50;;
64633;SDS011;51043;52.406;9.690;2022-08-01T13:00:49;12.43;;;2.13;;
64633;SDS011;51043;52.406;9.690;2022-08-01T13:03:28;6.75;;;2.17;;
64633;SDS011;51043;52.406;9.690;2022-08-01T13:05:56;7.28;;;2.78;;
64633;SDS011;51043;52.406;9.690;2022-08-01T13:08:32;8.55;;;2.45;;
64633;SDS011;51043;52.406;9.690;2022-08-01T13:11:07;7.53;;;2.25;;
64633;SDS011;51043;52.406;9.690;2022-08-01T13:13:49;8.63;;;2.45;;
64633;SDS011;51043;52.406;9.690;2022-08-01T13:16:23;7.78;;;2.33;;
64633;SDS011;51043;52.406;9.690;2022-08-01T13:18:59;11.38;;;2.60;;
64633;SDS011;51043;52.406;9.690;2022-08-01T13:21:27;6.20;;;2.70;;
64633;SDS011;51043;52.406;9.690;2022-08-01T13:24:05;12.63;;;2.78;;
64633;SDS011;51043;52.406;9.690;2022-08-01T13:26:44;7.15;;;2.60;;
64633;SDS011;51043;52.406;9.690;2022-08-01T13:29:20;9.13;;;2.50;;
64633;SDS011;51043;52.406;9.690;2022-08-01T13:31:49;7.05;;;2.45;;
64633;SDS011;51043;52.406;9.690;2022-08-01T13:34:16;16.55;;;3.03;;
64633;SDS011;51043;52.406;9.690;2022-08-01T13:36:43;6.95;;;2.53;;
64633;SDS011;51043;52.406;9.690;2022-08-01T13:39:14;9.52;;;2.65;;
64633;SDS011;51043;52.406;9.690;2022-08-01T13:41:59;8.73;;;2.70;;
64633;SDS011;51043;52.406;9.690;2022-08-01T13:44:27;8.70;;;2.60;;
64633;SDS011;51043;52.406;9.690;2022-08-01T13:46:54;10.57;;;2.80;;
64633;SDS011;51043;52.406;9.690;2022-08-01T13:49:22;8.65;;;2.40;;
64633;SDS011;51043;52.406;9.690;2022-08-01T13:51:49;9.88;;;2.97;;
64633;SDS011;51043;52.406;9.690;2022-08-01T13:54:18;9.15;;;2.67;;
64633;SDS011;51043;52.406;9.690;2022-08-01T13:56:45;9.38;;;2.78;;
64633;SDS011;51043;52.406;9.690;2022-08-01T13:59:19;12.40;;;3.00;;
64633;SDS011;51043;52.406;9.690;2022-08-01T14:01:49;8.18;;;3.00;;
64633;SDS011;51043;52.406;9.690;2022-08-01T14:04:19;12.00;;;2.92;;
64633;SDS011;51043;52.406;9.690;2022-08-01T14:06:47;8.38;;;2.83;;
64633;SDS011;51043;52.406;9.690;2022-08-01T14:09:14;13.27;;;3.03;;
64633;SDS011;51043;52.406;9.690;2022-08-01T14:11:47;6.97;;;2.50;;
64633;SDS011;51043;52.406;9.690;2022-08-01T14:14:14;7.68;;;2.97;;
64633;SDS011;51043;52.406;9.690;2022-08-01T14:16:47;7.57;;;3.00;;
64633;SDS011;51043;52.406;9.690;2022-08-01T14:19:16;12.13;;;2.75;;
64633;SDS011;51043;52.406;9.690;2022-08-01T14:21:48;7.07;;;2.40;;
64633;SDS011;51043;52.406;9.690;2022-08-01T14:24:15;8.73;;;2.95;;
64633;SDS011;51043;52.406;9.690;2022-08-01T14:26:47;10.75;;;2.75;;
64633;SDS011;51043;52.406;9.690;2022-08-01T14:29:24;11.60;;;2.70;;
64633;SDS011;51043;52.406;9.690;2022-08-01T14:31:52;12.65;;;2.80;;
64633;SDS011;51043;52.406;9.690;2022-08-01T14:34:22;8.30;;;3.08;;
64633;SDS011;51043;52.406;9.690;2022-08-01T14:36:48;11.45;;;3.10;;
64633;SDS011;51043;52.406;9.690;2022-08-01T14:39:15;15.05;;;3.25;;
64633;SDS011;51043;52.406;9.690;2022-08-01T14:41:52;8.82;;;3.00;;
64633;SDS011;51043;52.406;9.690;2022-08-01T14:44:23;11.95;;;3.22;;
64633;SDS011;51043;52.406;9.690;2022-08-01T14:46:50;9.27;;;3.17;;
64633;SDS011;51043;52.406;9.690;2022-08-01T14:49:19;10.32;;;3.10;;
64633;SDS011;51043;52.406;9.690;2022-08-01T14:51:49;9.15;;;2.63;;
64633;SDS011;51043;52.406;9.690;2022-08-01T14:54:15;13.93;;;2.78;;
64633;SDS011;51043;52.406;9.690;2022-08-01T14:56:50;10.70;;;3.08;;
64633;SDS011;51043;52.406;9.690;2022-08-01T14:59:24;10.38;;;2.90;;
64633;SDS011;51043;52.406;9.690;2022-08-01T15:01:51;9.15;;;2.85;;
64633;SDS011;51043;52.406;9.690;2022-08-01T15:04:18;9.73;;;2.58;;
64633;SDS011;51043;52.406;9.690;2022-08-01T15:06:47;8.25;;;2.63;;
64633;SDS011;51043;52.406;9.690;2022-08-01T15:09:14;12.63;;;2.88;;
64633;SDS011;51043;52.406;9.690;2022-08-01T15:11:41;13.07;;;2.78;;
64633;SDS011;51043;52.406;9.690;2022-08-01T15:14:13;8.95;;;2.65;;
64633;SDS011;51043;52.406;9.690;2022-08-01T15:16:58;14.00;;;2.88;;
64633;SDS011;51043;52.406;9.690;2022-08-01T15:19:25;14.88;;;3.10;;
64633;SDS011;51043;52.406;9.690;2022-08-01T15:21:55;10.82;;;3.05;;
64633;SDS011;51043;52.406;9.690;2022-08-01T15:24:22;13.52;;;2.63;;
64633;SDS011;51043;52.406;9.690;2022-08-01T15:26:49;8.57;;;2.88;;
64633;SDS011;51043;52.406;9.690;2022-08-01T15:29:17;8.32;;;3.17;;
64633;SDS011;51043;52.406;9.690;2022-08-01T15:31:50;8.77;;;2.40;;
64633;SDS011;51043;52.406;9.690;2022-08-01T15:34:20;9.50;;;2.58;;
64633;SDS011;51043;52.406;9.690;2022-08-01T15:36:49;15.38;;;2.63;;
64633;SDS011;51043;52.406;9.690;2022-08-01T15:39:16;14.20;;;2.85;;
64633;SDS011;51043;52.406;9.690;2022-08-01T15:41:50;8.93;;;2.67;;
64633;SDS011;51043;52.406;9.690;2022-08-01T15:44:17;14.05;;;2.47;;